Flight Track Log - Related Links

Times and Time Zones

All times are in EDT time to prevent confusion due to time zone crossing. See the N5275W flight status page for this flight to view local times or setup timezone preferences in your user account.

Time Position Orientation Groundspeed Altitude Reporting Facility
EDT Latitude Longitude Course Direction KTS MPH feet Rate Location/Type
Fri 05:25:09 PM 39.4833 -76.2833 37° Northeast 107 123 3,500  Level Potomac TRACON
Fri 05:26:09 PM 39.5167 -76.2500 38° Northeast 107 123 3,500  Level Potomac TRACON
Fri 05:27:09 PM 39.5333 -76.2333 38° Northeast 109 125 3,500  Level Potomac TRACON
Fri 05:28:52 PM 39.5833 -76.1833 38° Northeast 105 121 3,500  Level Philadelphia TRACON
Fri 05:29:52 PM 39.6000 -76.1667 38° Northeast 106 122 3,500 50 Level Philadelphia TRACON
Fri 05:30:00 PM 39.4882 -76.2481 37° Northeast  Level Estimated
Fri 05:30:52 PM 39.6167 -76.1333 57° Northeast 104 120 3,600  Level Philadelphia TRACON
Fri 05:31:52 PM 39.6500 -76.1167 21° North 108 124 3,600  Level Philadelphia TRACON
Fri 05:32:52 PM 39.6667 -76.1000 38° Northeast 103 119 3,600 -50 Level Philadelphia TRACON
Fri 05:33:52 PM 39.6833 -76.0667 57° Northeast 101 116 3,500  Descending Philadelphia TRACON
Fri 05:34:52 PM 39.7167 -76.0500 21° North 111 128 3,600  Climbing Philadelphia TRACON
Fri 05:35:58 PM 39.7333 -76.0000 67° East 109 125 3,500  Descending Philadelphia TRACON
Fri 05:37:10 PM 39.7500 -75.9667 57° Northeast 112 129 3,600 45 Climbing Philadelphia TRACON
Fri 05:38:10 PM 39.7667 -75.9333 57° Northeast 117 135 3,600  Level Philadelphia TRACON
Fri 05:38:58 PM 39.7833 -75.9000 57° Northeast 112 129 3,600 -56 Level Philadelphia TRACON
Fri 05:39:58 PM 39.8000 -75.8833 38° Northeast 109 125 3,500  Descending Philadelphia TRACON
Fri 05:40:58 PM 39.8167 -75.8500 57° Northeast 110 127 3,600 45 Climbing Philadelphia TRACON
Fri 05:42:10 PM 39.8500 -75.8000 49° Northeast 113 130 3,600  Level Philadelphia TRACON
Fri 05:42:59 PM 39.8667 -75.7833 38° Northeast 110 127 3,600 -56 Level Philadelphia TRACON
Fri 05:43:58 PM 39.8833 -75.7500 57° Northeast 110 127 3,500 -45 Descending Philadelphia TRACON
Fri 05:45:11 PM 39.9000 -75.7167 57° Northeast 106 122 3,500  Level Philadelphia TRACON
Fri 05:46:11 PM 39.9167 -75.6833 57° Northeast 108 124 3,500  Level Philadelphia TRACON
Fri 05:46:53 PM 39.9333 -75.6667 37° Northeast 107 123 3,500  Level Philadelphia TRACON
Fri 05:48:05 PM 39.9667 -75.6333 37° Northeast 102 117 3,500 50 Level Philadelphia TRACON
Fri 05:48:53 PM 39.9833 -75.6167 37° Northeast 106 122 3,600  Climbing Philadelphia TRACON
Fri 05:49:53 PM 40.0000 -75.6000 37° Northeast 101 116 3,500 -48 Descending Philadelphia TRACON
Fri 05:50:59 PM 40.0333 -75.5667 37° Northeast 102 117 3,500  Level Philadelphia TRACON
Fri 05:51:59 PM 40.0500 -75.5500 37° Northeast 105 121 3,500  Level Philadelphia TRACON
Fri 05:52:53 PM 40.0667 -75.5333 37° Northeast 104 120 3,500  Level Philadelphia TRACON
Fri 05:53:53 PM 40.1000 -75.5000 37° Northeast 111 128 3,500 50 Level Philadelphia TRACON
Fri 05:54:53 PM 40.1167 -75.4833 37° Northeast 104 120 3,600  Climbing Philadelphia TRACON
Fri 05:55:47 PM 40.1333 -75.4667 37° Northeast 109 125 3,500 -50 Descending Philadelphia TRACON
Fri 05:56:53 PM 40.1667 -75.4333 37° Northeast 106 122 3,500  Level Philadelphia TRACON
Fri 05:58:00 PM 40.2000 -75.4000 37° Northeast 110 127 3,500  Level Philadelphia TRACON
Fri 05:58:54 PM 40.2167 -75.3833 37° Northeast 105 121 3,500  Level Philadelphia TRACON
Fri 06:00:00 PM 40.2333 -75.3667 37° Northeast 107 123 3,500  Level Philadelphia TRACON
Fri 06:01:00 PM 40.2667 -75.3333 37° Northeast 110 127 3,500  Level Philadelphia TRACON
Fri 06:01:54 PM 40.2833 -75.3167 37° Northeast 111 128 3,500  Level Philadelphia TRACON
Fri 06:03:00 PM 40.3193 -75.2939 26° Northeast  Level FlightAware Approximate
Fri 06:10:00 PM 40.5397 -75.1227 39° Northeast  Level FlightAware Approximate
Fri 06:11:00 PM 40.5680 -75.0927 39° Northeast  Level FlightAware Approximate
Fri 06:11:15 PM 40.5167 -75.1000 39° Northeast 113 130 3,500  Level New York TRACON
Fri 06:12:00 PM 40.5962 -75.0627 39° Northeast  Level FlightAware Approximate
Fri 06:12:15 PM 40.5333 -75.0667 57° Northeast 113 130 3,500  Level New York TRACON
Fri 06:13:00 PM 40.6245 -75.0327 39° Northeast  Level FlightAware Approximate
Fri 06:13:21 PM 40.5667 -75.0500 21° North 108 124 3,500  Level New York TRACON
Fri 06:14:00 PM 40.6527 -75.0027 39° Northeast  Level FlightAware Approximate
Fri 06:14:15 PM 40.5833 -75.0167 57° Northeast 109 125 3,500  Level New York TRACON
Fri 06:15:00 PM 40.6809 -74.9726 39° Northeast  Level FlightAware Approximate
Fri 06:15:15 PM 40.6167 -75.0000 21° North 109 125 3,500  Level New York TRACON
Fri 06:16:00 PM 40.7091 -74.9425 39° Northeast  Level FlightAware Approximate
Fri 06:16:15 PM 40.6333 -74.9833 37° Northeast 110 127 3,500  Level New York TRACON
Fri 06:17:15 PM 40.6667 -74.9500 37° Northeast 113 130 3,500  Level New York TRACON
Fri 06:18:15 PM 40.6833 -74.9333 37° Northeast 111 128 3,500  Level New York TRACON
Fri 06:19:15 PM 40.7000 -74.9000 57° Northeast 112 129 3,500  Level New York TRACON
Fri 06:20:15 PM 40.7333 -74.8833 21° North 109 125 3,500  Level New York TRACON
Fri 06:21:15 PM 40.7500 -74.8500 57° Northeast 104 120 3,500  Level New York TRACON
Fri 06:22:15 PM 40.7833 -74.8333 21° North 108 124 3,500  Level New York TRACON
Fri 06:23:09 PM 40.8000 -74.8167 37° Northeast 113 130 3,500  Level New York TRACON
Fri 06:24:15 PM 40.8333 -74.7833 37° Northeast 110 127 3,500  Level New York TRACON
Fri 06:25:15 PM 40.8500 -74.7667 37° Northeast 107 123 3,500  Level New York TRACON
Fri 06:26:15 PM 40.8833 -74.7333 37° Northeast 110 127 3,500  Level New York TRACON
Fri 06:27:15 PM 40.9000 -74.7167 37° Northeast 107 123 3,500  Level New York TRACON
Fri 06:28:09 PM 40.9167 -74.7000 37° Northeast 110 127 3,500  Level New York TRACON
Fri 06:29:15 PM 40.9500 -74.6667 37° Northeast 111 128 3,500  Level New York TRACON
Fri 06:30:15 PM 40.9667 -74.6333 56° Northeast 112 129 3,500  Level New York TRACON
Fri 06:31:15 PM 41.0000 -74.6167 21° North 113 130 3,500  Level New York TRACON
Fri 06:32:15 PM 41.0167 -74.5833 56° Northeast 111 128 3,500  Level New York TRACON
Fri 06:33:09 PM 41.0500 -74.5667 21° North 110 127 3,500  Level New York TRACON
Fri 06:34:15 PM 41.0667 -74.5500 37° Northeast 108 124 3,500  Level New York TRACON
Fri 06:35:15 PM 41.1000 -74.5167 37° Northeast 109 125 3,500  Level New York TRACON
Fri 06:36:09 PM 41.1167 -74.5000 37° Northeast 106 122 3,500  Level New York TRACON
Fri 06:37:15 PM 41.1500 -74.4667 37° Northeast 110 127 3,500  Level New York TRACON
Fri 06:38:15 PM 41.1667 -74.4500 37° Northeast 110 127 3,500  Level New York TRACON
Fri 06:39:15 PM 41.1833 -74.4167 56° Northeast 107 123 3,500  Level New York TRACON
Fri 06:40:15 PM 41.2167 -74.4000 21° North 106 122 3,500  Level New York TRACON
Fri 06:41:15 PM 41.2333 -74.3833 37° Northeast 108 124 3,500  Level New York TRACON
Fri 06:42:15 PM 41.2667 -74.3500 37° Northeast 107 123 3,500  Level New York TRACON
Fri 06:43:15 PM 41.2833 -74.3333 37° Northeast 104 120 3,500  Level New York TRACON
Fri 06:44:15 PM 41.3000 -74.3000 56° Northeast 104 120 3,500  Level New York TRACON
Fri 06:45:09 PM 41.3333 -74.2833 21° North 108 124 3,500  Level New York TRACON
Fri 06:47:00 PM 41.3714 -74.2286 37° Northeast  Level FlightAware Approximate
Fri 06:54:00 PM 41.5000 -74.1000 37° Northeast  Level FlightAware Approximate
Fri 06:55:00 PM 41.5041 -74.1048 37° Northeast  Level Estimated
Fri 06:56:00 PM 41.5000 -74.1000 37° Northeast  Level FlightAware Approximate
Fri 06:57:00 PM 41.5041 -74.1048 37° Northeast  Level Estimated
Fri 06:58:00 PM 41.5000 -74.1000 37° Northeast  Level FlightAware Approximate
Fri 06:59:00 PM 41.5041 -74.1048 37° Northeast  Level Estimated
Fri 07:00:00 PM 41.5000 -74.1000 37° Northeast  Level FlightAware Approximate
Fri 07:01:00 PM 41.5041 -74.1048 37° Northeast  Level Estimated
Fri 07:02:00 PM 41.5000 -74.1000 37° Northeast  Level FlightAware Approximate
Fri 07:03:00 PM 41.5041 -74.1048 37° Northeast  Level Estimated
Fri 07:04:00 PM 41.5000 -74.1000 37° Northeast  Level FlightAware Approximate
Fri 07:05:00 PM 41.5041 -74.1048 37° Northeast  Level Estimated
Fri 07:06:00 PM 41.5000 -74.1000 37° Northeast  Level FlightAware Approximate
Fri 07:07:00 PM 41.5041 -74.1048 37° Northeast  Level Estimated
Fri 07:08:00 PM 41.5000 -74.1000 37° Northeast  Level FlightAware Approximate

Login

Don't have an account? Register now (free) for customized features, flight alerts, and more!